Aérodrome :
LOGIN :

S'inscrire | Disclaimer

   EN    FR    IT 

 










Légende :    VFR   VFR Marginal   IFR   IFR Intensif   IFR Très Intensif
Visi : 
Plafond : 
>= 8 km
>= 3000ft
5 à 8 km
1000 à 3000 ft
1500m à 5 km
500 à 1000 ft
800 à 1500m
200 à 500 ft
< 800m
< 200 ft
Symboles :   Orages  Brouillard  Fortes neiges  Fortes précipitations  Vent > 20 kt
SIGMETs :   Divers  Orages  Givrage  Turbulence  Onde Orograph.  Cendres Volcan.







- Altitude de l'aérodrome : 123 ft
- Code IATA : BLQ


LIPE - Bologna Guglielmo Marconi

DERNIER METAR :
  • 222220Z 28006KT 5000 -RA BR SCT020 BKN050 02/01 Q1003

METARs EXPIRÉS :
  • 222150Z 28007KT 6000 -RA SCT020 SCT055 02/01 Q1003
  • 222120Z 27008KT 7000 -RA SCT020 BKN055 02/01 Q1003
  • 222050Z 25006KT 7000 -RA FEW020 BKN055 02/01 Q1003
  • 222020Z 23007KT 7000 -RA SCT020 SCT060 02/01 Q1003
  • 221950Z 24007KT 7000 -RA BKN020 02/01 Q1004

TAF TAF LIPE
Valide du 22 à 18h jusqu'au 23 à 18h UTC


221700Z 2218/2318 28010KT 7000 BKN020
TEMPO 2218/2303 1300 SN
BECMG 2307/2309 VRB05KT
Pas de NOTAMs connus pour ce terrain.



MET'MAP, la Météo Aéronautique d'un coup d'oeil ! - Copyright ORBIFLY Décembre 2007 - Disclaimer

ORBIFLY MET'MAP TEAM :

Programmation & Développement : Alexandra Zaïnal
Conception & Développement : Baudouin d'Aumeries
Co-Programmation & Développement : Marc-Olivier Méhu
Soutien technique & logistique : Manuel Goepfert

Contact : metmap@orbifly.com




SOURCES & CREDITS :

   NOAA